Time;durP1;ratioP1;P1;durP2;ratioP2;P2;SDS_P1;SDS_P2;PMS_P1;PMS_P2;Temp;Humidity;BMP_temperature;BMP_pressure;BME280_temperature;BME280_humidity;BME280_pressure;Samples;Min_cycle;Max_cycle;Signal;HPM_P1;HPM_P2
2023/02/09 00:00:20;;;;;;;10.32;4.80;;;;;;;;;;5012807;28;20033;-78
2023/02/09 00:02:45;;;;;;;10.45;5.45;;;;;;;;;;5026468;28;20017;-78
2023/02/09 00:05:11;;;;;;;10.45;5.13;;;;;;;;;;5026315;28;20026;-78
2023/02/09 00:07:36;;;;;;;9.05;4.97;;;;;;;;;;5016435;28;20029;-78
2023/02/09 00:10:03;;;;;;;9.68;5.30;;;;;;;;;;5013640;28;20036;-78
2023/02/09 00:15:13;;;;;;;10.35;4.78;;;;;;;;;;5017133;28;20066;-78
2023/02/09 00:17:38;;;;;;;10.63;5.28;;;;;;;;;;5026165;28;20030;-78
2023/02/09 00:20:06;;;;;;;8.55;4.75;;;;;;;;;;5022330;28;20120;-78
2023/02/09 00:22:31;;;;;;;7.88;4.57;;;;;;;;;;5006740;28;20026;-78
2023/02/09 00:24:57;;;;;;;8.82;5.25;;;;;;;;;;5028431;28;20139;-78
2023/02/09 00:27:22;;;;;;;10.25;5.72;;;;;;;;;;5007394;28;20076;-79
2023/02/09 00:29:48;;;;;;;9.95;5.10;;;;;;;;;;5004822;28;20025;-78
2023/02/09 00:32:13;;;;;;;10.07;4.93;;;;;;;;;;5023747;28;20021;-78
2023/02/09 00:34:38;;;;;;;11.90;5.35;;;;;;;;;;5009840;28;20040;-78
2023/02/09 00:37:04;;;;;;;10.05;5.45;;;;;;;;;;5014796;28;20456;-78
2023/02/09 00:39:29;;;;;;;9.90;5.50;;;;;;;;;;5012083;28;20025;-78
2023/02/09 00:42:09;;;;;;;9.48;5.30;;;;;;;;;;5005692;28;20045;-78
2023/02/09 00:44:37;;;;;;;11.10;5.55;;;;;;;;;;5024263;28;20596;-78
2023/02/09 00:47:04;;;;;;;9.13;5.32;;;;;;;;;;5024034;28;20029;-78
2023/02/09 00:49:29;;;;;;;10.77;5.43;;;;;;;;;;5024978;28;20026;-78
2023/02/09 00:51:55;;;;;;;10.02;5.18;;;;;;;;;;5028006;28;20051;-78
2023/02/09 00:54:20;;;;;;;9.52;5.20;;;;;;;;;;5015305;28;20029;-78
2023/02/09 00:56:46;;;;;;;9.25;5.22;;;;;;;;;;5012919;28;20049;-78
2023/02/09 00:59:11;;;;;;;9.48;5.32;;;;;;;;;;5030236;28;20026;-78
2023/02/09 01:01:38;;;;;;;8.73;4.63;;;;;;;;;;5026611;28;20040;-78
2023/02/09 01:04:04;;;;;;;8.38;5.05;;;;;;;;;;5010656;28;20017;-78
2023/02/09 01:06:29;;;;;;;10.43;5.85;;;;;;;;;;5026770;28;20075;-78
2023/02/09 01:08:55;;;;;;;10.18;5.00;;;;;;;;;;5010704;28;20113;-78
2023/02/09 01:11:21;;;;;;;9.40;5.03;;;;;;;;;;5032886;28;20502;-78
2023/02/09 01:13:47;;;;;;;11.38;6.35;;;;;;;;;;5028443;28;21399;-78
2023/02/09 01:16:16;;;;;;;9.55;5.50;;;;;;;;;;5027828;28;20034;-79
2023/02/09 01:18:42;;;;;;;11.70;5.70;;;;;;;;;;5022547;28;20033;-78
2023/02/09 01:21:13;;;;;;;13.18;5.82;;;;;;;;;;5021267;28;20024;-78
2023/02/09 01:23:39;;;;;;;11.00;5.82;;;;;;;;;;5009739;28;20040;-78
2023/02/09 01:26:06;;;;;;;11.10;5.35;;;;;;;;;;5027524;28;20469;-78
2023/02/09 01:28:31;;;;;;;12.57;6.00;;;;;;;;;;5019691;28;20041;-78
2023/02/09 01:30:57;;;;;;;11.23;5.45;;;;;;;;;;5024495;28;20029;-78
2023/02/09 01:33:22;;;;;;;10.00;5.10;;;;;;;;;;5021440;28;20544;-78
2023/02/09 01:35:48;;;;;;;12.95;6.05;;;;;;;;;;5023623;28;20121;-78
2023/02/09 01:38:13;;;;;;;10.48;5.47;;;;;;;;;;5008418;28;20139;-78
2023/02/09 01:40:39;;;;;;;10.40;5.72;;;;;;;;;;5018573;28;20029;-78
2023/02/09 01:43:04;;;;;;;9.10;5.38;;;;;;;;;;5025170;28;20083;-78
2023/02/09 01:45:42;;;;;;;10.68;5.75;;;;;;;;;;5023115;28;20029;-79
2023/02/09 01:48:08;;;;;;;11.05;5.70;;;;;;;;;;5024103;28;20017;-78
2023/02/09 01:50:38;;;;;;;11.00;5.70;;;;;;;;;;5022672;28;20048;-78
2023/02/09 01:53:04;;;;;;;12.80;5.55;;;;;;;;;;5010445;28;20017;-78
2023/02/09 01:55:34;;;;;;;11.38;5.78;;;;;;;;;;5030076;28;20060;-78
2023/02/09 01:58:05;;;;;;;10.07;5.13;;;;;;;;;;5013743;28;20029;-78
2023/02/09 02:00:30;;;;;;;10.85;5.57;;;;;;;;;;5032587;28;20339;-78
2023/02/09 02:03:03;;;;;;;9.70;5.43;;;;;;;;;;5011884;28;20067;-79
2023/02/09 02:05:32;;;;;;;8.93;4.97;;;;;;;;;;5010570;28;20057;-78
2023/02/09 02:08:22;;;;;;;10.95;5.82;;;;;;;;;;5009174;28;20033;-78
2023/02/09 02:10:48;;;;;;;9.18;5.03;;;;;;;;;;5029112;28;20034;-78
2023/02/09 02:13:13;;;;;;;11.68;5.57;;;;;;;;;;5027519;28;20028;-78
2023/02/09 02:16:11;;;;;;;9.95;5.38;;;;;;;;;;5023283;28;20056;-78
2023/02/09 02:18:55;;;;;;;9.90;5.35;;;;;;;;;;5027686;28;20488;-78
2023/02/09 02:21:39;;;;;;;11.30;5.57;;;;;;;;;;5003966;28;20033;-78
2023/02/09 02:24:37;;;;;;;11.18;4.72;;;;;;;;;;5025157;28;20114;-78
2023/02/09 02:27:05;;;;;;;11.18;5.22;;;;;;;;;;5007370;28;20094;-78
2023/02/09 02:30:02;;;;;;;10.52;5.57;;;;;;;;;;5030025;28;20025;-78
2023/02/09 02:32:34;;;;;;;10.95;6.10;;;;;;;;;;5007342;28;20025;-78
2023/02/09 02:35:02;;;;;;;11.32;5.53;;;;;;;;;;5024801;28;20091;-78
2023/02/09 02:37:40;;;;;;;11.90;5.78;;;;;;;;;;5010311;28;20033;-78
2023/02/09 02:40:34;;;;;;;10.55;5.30;;;;;;;;;;5025527;28;20053;-78
2023/02/09 02:43:27;;;;;;;10.98;5.70;;;;;;;;;;5028894;28;20044;-78
2023/02/09 02:46:28;;;;;;;9.48;5.20;;;;;;;;;;5018878;28;20493;-78
2023/02/09 02:49:17;;;;;;;10.45;5.40;;;;;;;;;;5015806;28;20108;-78
2023/02/09 02:51:45;;;;;;;14.60;5.55;;;;;;;;;;5024589;28;20157;-78
2023/02/09 02:54:19;;;;;;;10.07;5.50;;;;;;;;;;5010391;28;20121;-78
2023/02/09 02:56:52;;;;;;;11.95;5.03;;;;;;;;;;5023617;28;20029;-78
2023/02/09 02:59:24;;;;;;;12.07;5.38;;;;;;;;;;5011677;28;20025;-78
2023/02/09 03:02:00;;;;;;;10.50;5.50;;;;;;;;;;5024829;28;20041;-78
2023/02/09 03:04:27;;;;;;;9.77;5.13;;;;;;;;;;5009173;28;20030;-77
2023/02/09 03:06:52;;;;;;;8.93;5.15;;;;;;;;;;5004690;28;20040;-78
2023/02/09 03:09:18;;;;;;;9.27;4.95;;;;;;;;;;5026787;28;20029;-77
2023/02/09 03:11:47;;;;;;;10.05;5.43;;;;;;;;;;5009100;28;20025;-78
2023/02/09 03:14:34;;;;;;;9.43;5.28;;;;;;;;;;5030812;28;20038;-78
2023/02/09 03:17:25;;;;;;;10.40;4.80;;;;;;;;;;5024137;28;20500;-78
2023/02/09 03:20:05;;;;;;;10.90;5.10;;;;;;;;;;5005622;28;20030;-78
2023/02/09 03:22:38;;;;;;;9.50;5.38;;;;;;;;;;5022712;28;20116;-77
2023/02/09 03:25:09;;;;;;;9.75;4.75;;;;;;;;;;5024764;28;20101;-77
2023/02/09 03:27:36;;;;;;;8.48;4.78;;;;;;;;;;5012275;28;20136;-78
2023/02/09 03:30:05;;;;;;;9.30;4.90;;;;;;;;;;5026605;28;20068;-77
2023/02/09 03:32:36;;;;;;;8.18;4.45;;;;;;;;;;5021477;28;20026;-78
2023/02/09 03:35:03;;;;;;;12.15;5.10;;;;;;;;;;5014485;28;20116;-77
2023/02/09 03:37:28;;;;;;;9.73;4.80;;;;;;;;;;5006733;28;20044;-78
2023/02/09 03:39:54;;;;;;;8.32;4.72;;;;;;;;;;5021024;28;20108;-77
2023/02/09 03:42:19;;;;;;;10.18;4.82;;;;;;;;;;5004255;28;20113;-77
2023/02/09 03:44:45;;;;;;;9.25;5.10;;;;;;;;;;5005579;28;20033;-77
2023/02/09 03:47:10;;;;;;;8.70;4.57;;;;;;;;;;5021789;28;20036;-77
2023/02/09 03:49:38;;;;;;;9.32;5.00;;;;;;;;;;5006415;28;20022;-77
2023/02/09 03:52:04;;;;;;;8.68;4.47;;;;;;;;;;5022291;28;20567;-77
2023/02/09 03:54:31;;;;;;;8.40;4.43;;;;;;;;;;5013540;28;20663;-77
2023/02/09 03:56:57;;;;;;;8.25;4.55;;;;;;;;;;5032126;28;20389;-77
2023/02/09 03:59:26;;;;;;;8.27;4.55;;;;;;;;;;5030475;28;20104;-77
2023/02/09 04:01:56;;;;;;;8.77;4.82;;;;;;;;;;5016172;28;20033;-77
2023/02/09 04:04:22;;;;;;;9.00;4.70;;;;;;;;;;5012756;28;20499;-77
2023/02/09 04:06:48;;;;;;;9.50;4.78;;;;;;;;;;5016044;28;20293;-77
2023/02/09 04:09:14;;;;;;;9.07;4.63;;;;;;;;;;5030437;28;20107;-78
2023/02/09 04:11:40;;;;;;;9.32;4.63;;;;;;;;;;5008337;28;20030;-77
2023/02/09 04:14:07;;;;;;;9.40;4.78;;;;;;;;;;5028000;28;20030;-78
2023/02/09 04:16:33;;;;;;;10.07;4.90;;;;;;;;;;5029428;28;20036;-77
2023/02/09 04:18:58;;;;;;;8.85;4.78;;;;;;;;;;5029558;28;20033;-77
2023/02/09 04:21:24;;;;;;;13.00;4.68;;;;;;;;;;5006206;28;20181;-78
2023/02/09 04:23:49;;;;;;;8.85;4.47;;;;;;;;;;5006000;28;20377;-77
2023/02/09 04:26:15;;;;;;;9.55;4.75;;;;;;;;;;5025780;28;20179;-77
2023/02/09 04:28:40;;;;;;;9.20;4.80;;;;;;;;;;5029701;28;20036;-77
2023/02/09 04:31:06;;;;;;;9.32;4.22;;;;;;;;;;5026654;28;20049;-77
2023/02/09 04:33:31;;;;;;;9.07;5.07;;;;;;;;;;5020078;28;20509;-77
2023/02/09 04:35:56;;;;;;;8.07;3.95;;;;;;;;;;5017414;28;20045;-77
2023/02/09 04:38:22;;;;;;;9.73;4.88;;;;;;;;;;5019041;28;20025;-77
2023/02/09 04:40:50;;;;;;;8.98;4.90;;;;;;;;;;5000428;28;20164;-78
2023/02/09 04:43:15;;;;;;;10.35;5.13;;;;;;;;;;5008204;28;20124;-77
2023/02/09 04:45:41;;;;;;;10.02;5.07;;;;;;;;;;5004087;28;20033;-77
2023/02/09 04:48:11;;;;;;;7.97;4.53;;;;;;;;;;5004698;28;20057;-77
2023/02/09 04:50:36;;;;;;;10.07;5.07;;;;;;;;;;5016307;28;20030;-77
2023/02/09 04:53:01;;;;;;;9.75;4.82;;;;;;;;;;5014611;28;20367;-77
2023/02/09 04:55:27;;;;;;;7.88;4.65;;;;;;;;;;5021811;28;20045;-77
2023/02/09 05:00:36;;;;;;;8.40;3.95;;;;;;;;;;5014478;28;20111;-77
2023/02/09 05:03:02;;;;;;;10.18;4.40;;;;;;;;;;5003593;28;20021;-78
2023/02/09 05:05:27;;;;;;;7.95;4.47;;;;;;;;;;5018758;28;20024;-76
2023/02/09 05:07:53;;;;;;;9.38;4.93;;;;;;;;;;5015938;28;20591;-77
2023/02/09 05:10:18;;;;;;;8.75;4.35;;;;;;;;;;5018432;28;20053;-77
2023/02/09 05:12:44;;;;;;;8.57;4.28;;;;;;;;;;5006961;28;20497;-77
2023/02/09 05:15:09;;;;;;;7.82;4.10;;;;;;;;;;5005050;28;20079;-77
2023/02/09 05:17:35;;;;;;;9.07;4.72;;;;;;;;;;5007287;28;20121;-77
2023/02/09 05:20:00;;;;;;;7.90;4.15;;;;;;;;;;5003817;28;20025;-77
2023/02/09 05:22:25;;;;;;;8.20;4.80;;;;;;;;;;5016193;28;20085;-77
2023/02/09 05:24:51;;;;;;;10.18;4.55;;;;;;;;;;5015671;28;20521;-77
2023/02/09 05:27:16;;;;;;;8.65;3.78;;;;;;;;;;5026485;28;20787;-77
2023/02/09 05:29:42;;;;;;;11.50;4.78;;;;;;;;;;5011314;28;20029;-77
2023/02/09 05:32:07;;;;;;;11.55;4.20;;;;;;;;;;5021489;28;20092;-78
2023/02/09 05:34:33;;;;;;;8.05;4.15;;;;;;;;;;5001428;28;20044;-77
2023/02/09 05:36:58;;;;;;;8.88;4.40;;;;;;;;;;5019485;28;20077;-77
2023/02/09 05:39:24;;;;;;;10.98;4.65;;;;;;;;;;5006824;28;20061;-78
2023/02/09 05:44:33;;;;;;;9.38;4.57;;;;;;;;;;5023459;28;20164;-77
2023/02/09 05:46:59;;;;;;;8.98;4.47;;;;;;;;;;5025159;28;20112;-77
2023/02/09 05:49:24;;;;;;;8.15;4.60;;;;;;;;;;5006318;28;20037;-77
2023/02/09 05:51:50;;;;;;;11.38;4.43;;;;;;;;;;5023786;28;20041;-77
2023/02/09 05:54:16;;;;;;;8.25;4.15;;;;;;;;;;5011892;28;20037;-77
2023/02/09 05:56:42;;;;;;;10.25;4.47;;;;;;;;;;5024394;28;20028;-77
2023/02/09 05:59:07;;;;;;;8.98;4.57;;;;;;;;;;5026635;28;20112;-77
2023/02/09 06:01:33;;;;;;;9.85;4.63;;;;;;;;;;5023064;28;20101;-77
2023/02/09 06:03:59;;;;;;;11.02;4.88;;;;;;;;;;5005970;28;20451;-77
2023/02/09 06:06:24;;;;;;;9.75;4.50;;;;;;;;;;5025914;28;20041;-77
2023/02/09 06:08:49;;;;;;;8.13;4.32;;;;;;;;;;5020862;28;20025;-77
2023/02/09 06:11:15;;;;;;;9.23;4.30;;;;;;;;;;5030618;28;20049;-77
2023/02/09 06:13:40;;;;;;;8.75;4.30;;;;;;;;;;5007533;28;20397;-77
2023/02/09 06:16:06;;;;;;;12.23;4.85;;;;;;;;;;5028849;28;20037;-77
2023/02/09 06:18:31;;;;;;;8.85;4.22;;;;;;;;;;5012602;28;20033;-77
2023/02/09 06:20:57;;;;;;;8.30;4.32;;;;;;;;;;5008764;28;20036;-77
2023/02/09 06:23:22;;;;;;;8.65;4.25;;;;;;;;;;5027517;28;20100;-77
2023/02/09 06:25:51;;;;;;;10.13;4.70;;;;;;;;;;5026083;28;20116;-77
2023/02/09 06:28:20;;;;;;;8.02;4.45;;;;;;;;;;5032068;28;20028;-77
2023/02/09 06:30:52;;;;;;;7.47;3.67;;;;;;;;;;5026145;28;21434;-77
2023/02/09 06:33:19;;;;;;;10.00;4.68;;;;;;;;;;5027736;28;20477;-77
2023/02/09 06:35:45;;;;;;;10.85;5.07;;;;;;;;;;5011528;28;20038;-77
2023/02/09 06:38:11;;;;;;;7.70;4.35;;;;;;;;;;5028458;28;20061;-77
2023/02/09 06:40:36;;;;;;;10.10;5.07;;;;;;;;;;5025803;28;20053;-77
2023/02/09 06:43:01;;;;;;;9.60;4.65;;;;;;;;;;5012291;28;20029;-77
2023/02/09 06:45:27;;;;;;;9.30;4.78;;;;;;;;;;5022421;28;20034;-77
2023/02/09 06:47:52;;;;;;;10.00;4.32;;;;;;;;;;5029301;28;20057;-77
2023/02/09 06:50:18;;;;;;;9.50;4.82;;;;;;;;;;5010110;28;20033;-77
2023/02/09 06:52:44;;;;;;;7.13;4.00;;;;;;;;;;5020164;28;20048;-78
2023/02/09 06:55:09;;;;;;;9.15;4.30;;;;;;;;;;5019837;28;20457;-78
2023/02/09 06:57:35;;;;;;;8.30;4.28;;;;;;;;;;5023751;28;20042;-77
2023/02/09 07:00:03;;;;;;;13.48;7.03;;;;;;;;;;5017848;28;20026;-77
2023/02/09 07:02:28;;;;;;;12.32;5.05;;;;;;;;;;5006015;28;20021;-77
2023/02/09 07:04:53;;;;;;;10.35;4.88;;;;;;;;;;5026368;28;20029;-77
2023/02/09 07:07:19;;;;;;;9.75;4.82;;;;;;;;;;5008818;28;20488;-77
2023/02/09 07:09:44;;;;;;;9.40;5.03;;;;;;;;;;5012206;28;20120;-77
2023/02/09 07:12:10;;;;;;;10.77;4.75;;;;;;;;;;5027090;28;20032;-77
2023/02/09 07:14:35;;;;;;;10.23;5.05;;;;;;;;;;5027340;28;20416;-77
2023/02/09 07:17:00;;;;;;;10.20;4.68;;;;;;;;;;5026307;28;20125;-77
2023/02/09 07:19:26;;;;;;;11.88;5.38;;;;;;;;;;5028004;28;20017;-77
2023/02/09 07:21:51;;;;;;;11.02;5.43;;;;;;;;;;5030253;28;20067;-77
2023/02/09 07:24:17;;;;;;;11.30;5.47;;;;;;;;;;5021377;28;20055;-77
2023/02/09 07:26:42;;;;;;;11.70;5.45;;;;;;;;;;5015178;28;20033;-77
2023/02/09 07:29:08;;;;;;;11.30;5.07;;;;;;;;;;5030830;28;20025;-77
2023/02/09 07:31:33;;;;;;;8.90;5.05;;;;;;;;;;5032133;28;20025;-77
2023/02/09 07:33:59;;;;;;;11.30;5.05;;;;;;;;;;5012929;28;20069;-77
2023/02/09 07:36:24;;;;;;;9.68;4.82;;;;;;;;;;5028619;28;20082;-77
2023/02/09 07:38:50;;;;;;;9.65;5.28;;;;;;;;;;5027366;28;20040;-77
2023/02/09 07:41:24;;;;;;;9.90;4.82;;;;;;;;;;5018013;28;20425;-77
2023/02/09 07:43:50;;;;;;;9.00;5.05;;;;;;;;;;5016503;28;20052;-77
2023/02/09 07:46:17;;;;;;;9.85;5.05;;;;;;;;;;5007862;28;20576;-77
2023/02/09 07:48:43;;;;;;;10.70;5.15;;;;;;;;;;5012301;28;20065;-77
2023/02/09 07:51:14;;;;;;;9.88;5.10;;;;;;;;;;5031958;28;20092;-77
2023/02/09 07:53:39;;;;;;;11.25;4.88;;;;;;;;;;5034866;28;20456;-77
2023/02/09 07:56:05;;;;;;;10.63;4.82;;;;;;;;;;5031053;28;20069;-77
2023/02/09 07:58:30;;;;;;;9.68;5.25;;;;;;;;;;5013886;28;20029;-77
2023/02/09 08:01:03;;;;;;;14.25;5.05;;;;;;;;;;5034142;28;20027;-77
2023/02/09 08:03:28;;;;;;;9.98;5.15;;;;;;;;;;5031925;28;20021;-77
2023/02/09 08:06:09;;;;;;;9.15;4.65;;;;;;;;;;5030759;28;20036;-77
2023/02/09 08:08:35;;;;;;;9.90;4.53;;;;;;;;;;5002546;28;20048;-77
2023/02/09 08:11:03;;;;;;;10.88;4.88;;;;;;;;;;5036321;28;20021;-77
2023/02/09 08:13:33;;;;;;;9.02;4.60;;;;;;;;;;5027554;28;20028;-77
2023/02/09 08:16:04;;;;;;;9.80;4.47;;;;;;;;;;5013721;28;20029;-77
2023/02/09 08:18:35;;;;;;;10.95;5.15;;;;;;;;;;5015695;28;20017;-77
2023/02/09 08:21:02;;;;;;;13.75;5.15;;;;;;;;;;5013639;28;20030;-77
2023/02/09 08:23:31;;;;;;;9.50;5.05;;;;;;;;;;5017620;28;20052;-77
2023/02/09 08:26:00;;;;;;;11.23;5.32;;;;;;;;;;5029422;28;20018;-77
2023/02/09 08:28:25;;;;;;;10.05;5.20;;;;;;;;;;5028590;28;20029;-77
2023/02/09 08:30:51;;;;;;;11.55;5.32;;;;;;;;;;5016915;28;20044;-78
2023/02/09 08:33:16;;;;;;;12.15;5.18;;;;;;;;;;5034471;28;20018;-77
2023/02/09 08:35:42;;;;;;;8.95;4.82;;;;;;;;;;5032000;28;20030;-77
2023/02/09 08:38:08;;;;;;;10.23;5.32;;;;;;;;;;5033330;28;20048;-77
2023/02/09 08:40:39;;;;;;;11.57;5.20;;;;;;;;;;5013264;28;20032;-77
2023/02/09 08:43:04;;;;;;;12.70;5.32;;;;;;;;;;5031413;28;20017;-77
2023/02/09 08:45:29;;;;;;;10.50;5.40;;;;;;;;;;5031378;28;20024;-77
2023/02/09 08:47:55;;;;;;;10.90;4.97;;;;;;;;;;5032958;28;20021;-77
2023/02/09 08:50:21;;;;;;;13.27;5.43;;;;;;;;;;5031808;28;20028;-77
2023/02/09 08:52:46;;;;;;;11.50;5.32;;;;;;;;;;5011707;28;20044;-77
2023/02/09 08:55:12;;;;;;;13.77;5.43;;;;;;;;;;5013894;28;20083;-77
2023/02/09 08:57:37;;;;;;;10.18;5.10;;;;;;;;;;5016512;28;20025;-77
2023/02/09 09:00:04;;;;;;;8.75;5.25;;;;;;;;;;5029334;28;20053;-77
2023/02/09 09:02:29;;;;;;;10.63;5.65;;;;;;;;;;5015294;28;20025;-77
2023/02/09 09:04:55;;;;;;;11.60;5.78;;;;;;;;;;5011950;28;20507;-77
2023/02/09 09:07:20;;;;;;;11.90;5.45;;;;;;;;;;5014324;28;20390;-77
2023/02/09 09:09:45;;;;;;;11.45;6.03;;;;;;;;;;5030262;28;20034;-78
2023/02/09 09:12:11;;;;;;;11.82;5.70;;;;;;;;;;5013249;28;20017;-77
2023/02/09 09:14:36;;;;;;;10.55;5.38;;;;;;;;;;5017174;28;20087;-77
2023/02/09 09:17:02;;;;;;;13.43;6.50;;;;;;;;;;5027960;28;20672;-77
2023/02/09 09:19:28;;;;;;;12.82;5.65;;;;;;;;;;5010726;28;20065;-77
2023/02/09 09:21:53;;;;;;;10.93;5.50;;;;;;;;;;5013543;28;20032;-77
2023/02/09 09:24:19;;;;;;;12.23;5.90;;;;;;;;;;5012669;28;20025;-77
2023/02/09 09:26:45;;;;;;;11.48;6.00;;;;;;;;;;5014716;28;20013;-77
2023/02/09 09:29:11;;;;;;;9.77;5.57;;;;;;;;;;5026944;28;20028;-77
2023/02/09 09:31:36;;;;;;;12.80;6.68;;;;;;;;;;5015677;28;21441;-77
2023/02/09 09:34:03;;;;;;;10.80;5.63;;;;;;;;;;5032347;28;20108;-77
2023/02/09 09:36:29;;;;;;;9.57;5.40;;;;;;;;;;5012295;28;20443;-77
2023/02/09 09:38:54;;;;;;;11.15;5.50;;;;;;;;;;5024476;28;20017;-77
2023/02/09 09:41:24;;;;;;;10.02;5.53;;;;;;;;;;5029034;28;20108;-77
2023/02/09 09:43:52;;;;;;;11.05;6.05;;;;;;;;;;5033646;28;20058;-77
2023/02/09 09:46:21;;;;;;;13.30;6.10;;;;;;;;;;5016047;28;20582;-77
2023/02/09 09:48:54;;;;;;;10.85;5.75;;;;;;;;;;5032051;28;20029;-77
2023/02/09 09:51:38;;;;;;;14.20;6.20;;;;;;;;;;5031258;28;20033;-77
2023/02/09 09:54:06;;;;;;;12.77;5.43;;;;;;;;;;5024548;28;20092;-77
2023/02/09 09:56:32;;;;;;;12.40;6.50;;;;;;;;;;5032785;28;20029;-77
2023/02/09 09:58:58;;;;;;;13.25;6.13;;;;;;;;;;5014604;28;20025;-77
2023/02/09 10:01:27;;;;;;;14.88;6.30;;;;;;;;;;5006038;28;20493;-77
2023/02/09 10:03:57;;;;;;;11.77;5.97;;;;;;;;;;5012870;28;20232;-78
2023/02/09 10:06:23;;;;;;;10.27;6.22;;;;;;;;;;5028880;28;20028;-77
2023/02/09 10:08:53;;;;;;;13.35;6.68;;;;;;;;;;5027653;28;20025;-78
2023/02/09 10:11:27;;;;;;;10.57;5.93;;;;;;;;;;5027104;28;20028;-77
2023/02/09 10:13:55;;;;;;;11.07;5.38;;;;;;;;;;5033367;28;20025;-78
2023/02/09 10:16:36;;;;;;;12.18;6.07;;;;;;;;;;5022592;28;20018;-77
2023/02/09 10:19:25;;;;;;;10.40;5.60;;;;;;;;;;5029408;28;20018;-78
2023/02/09 10:21:52;;;;;;;10.30;5.40;;;;;;;;;;5028941;28;20084;-78
2023/02/09 10:24:25;;;;;;;10.70;6.03;;;;;;;;;;5013188;28;20029;-78
2023/02/09 10:27:16;;;;;;;12.32;6.25;;;;;;;;;;5027284;28;20079;-78
2023/02/09 10:29:41;;;;;;;13.55;5.97;;;;;;;;;;5012547;28;20412;-78
2023/02/09 10:32:14;;;;;;;10.20;5.88;;;;;;;;;;5026686;28;20025;-78
2023/02/09 10:34:44;;;;;;;10.80;6.40;;;;;;;;;;5027935;28;20033;-78
2023/02/09 10:37:12;;;;;;;13.05;6.43;;;;;;;;;;5032974;28;20021;-78
2023/02/09 10:39:38;;;;;;;12.48;6.55;;;;;;;;;;5026909;28;20061;-78
2023/02/09 10:42:18;;;;;;;12.10;6.93;;;;;;;;;;5032215;28;20057;-78
2023/02/09 10:44:48;;;;;;;11.43;6.10;;;;;;;;;;5033266;28;20033;-78
2023/02/09 10:47:19;;;;;;;12.07;6.50;;;;;;;;;;5025811;28;20036;-78
2023/02/09 10:50:09;;;;;;;12.27;6.40;;;;;;;;;;4999995;28;20030;-78
2023/02/09 10:52:37;;;;;;;12.30;6.18;;;;;;;;;;5022659;28;20028;-78
2023/02/09 10:55:13;;;;;;;11.93;6.40;;;;;;;;;;5032769;28;20505;-78
2023/02/09 10:57:39;;;;;;;12.88;6.72;;;;;;;;;;5021800;28;20045;-78
2023/02/09 11:00:16;;;;;;;12.60;6.38;;;;;;;;;;5016444;28;20025;-77
2023/02/09 11:02:56;;;;;;;12.82;6.10;;;;;;;;;;5020162;28;20396;-78
2023/02/09 11:05:21;;;;;;;11.48;6.40;;;;;;;;;;5037945;28;20029;-78
2023/02/09 11:08:28;;;;;;;11.82;6.40;;;;;;;;;;5030804;28;20033;-78
2023/02/09 11:11:04;;;;;;;13.20;6.93;;;;;;;;;;5021288;28;20124;-78
2023/02/09 11:13:33;;;;;;;13.48;6.53;;;;;;;;;;5028538;28;20029;-78
2023/02/09 11:16:32;;;;;;;14.15;7.28;;;;;;;;;;5012945;28;20034;-78
2023/02/09 11:19:07;;;;;;;12.38;6.43;;;;;;;;;;5017776;28;20067;-78
2023/02/09 11:21:45;;;;;;;11.65;6.18;;;;;;;;;;5018098;28;20032;-78
2023/02/09 11:24:32;;;;;;;13.73;5.95;;;;;;;;;;5029293;28;20129;-79
2023/02/09 11:27:34;;;;;;;12.02;6.80;;;;;;;;;;5034985;28;20041;-78
2023/02/09 11:30:18;;;;;;;12.25;6.57;;;;;;;;;;5017116;28;20029;-78
2023/02/09 11:33:01;;;;;;;13.27;6.95;;;;;;;;;;5022285;28;20393;-78
2023/02/09 11:35:45;;;;;;;15.63;7.78;;;;;;;;;;5030664;28;20030;-78
2023/02/09 11:38:15;;;;;;;11.77;6.40;;;;;;;;;;5017208;28;20477;-78
2023/02/09 11:40:51;;;;;;;15.05;7.72;;;;;;;;;;5019503;28;20052;-78
2023/02/09 11:43:39;;;;;;;14.88;7.85;;;;;;;;;;5029796;28;20036;-78
2023/02/09 11:46:12;;;;;;;13.77;7.35;;;;;;;;;;5030456;28;20474;-78
2023/02/09 11:48:56;;;;;;;13.90;7.50;;;;;;;;;;5035166;28;20065;-78
2023/02/09 11:51:25;;;;;;;11.90;6.88;;;;;;;;;;5031233;28;20048;-78
2023/02/09 11:54:03;;;;;;;16.75;8.02;;;;;;;;;;5028339;28;20630;-79
2023/02/09 11:56:33;;;;;;;13.57;6.80;;;;;;;;;;5017757;28;20151;-78
2023/02/09 11:59:20;;;;;;;15.45;6.80;;;;;;;;;;5010042;28;20043;-78
2023/02/09 12:02:03;;;;;;;13.40;6.95;;;;;;;;;;5027774;28;20489;-78
2023/02/09 12:04:46;;;;;;;13.23;7.60;;;;;;;;;;5032291;28;20021;-78
2023/02/09 12:07:27;;;;;;;11.68;6.53;;;;;;;;;;5024125;28;20127;-78
2023/02/09 12:10:32;;;;;;;11.60;6.43;;;;;;;;;;5033696;28;20056;-78
2023/02/09 12:13:04;;;;;;;13.60;7.15;;;;;;;;;;5014783;28;20044;-78
2023/02/09 12:15:39;;;;;;;14.13;7.72;;;;;;;;;;5010822;28;20121;-78
2023/02/09 12:18:18;;;;;;;15.18;8.18;;;;;;;;;;5035033;28;20401;-78
2023/02/09 12:21:00;;;;;;;14.40;7.97;;;;;;;;;;5004292;28;20393;-78
2023/02/09 12:23:25;;;;;;;17.20;8.32;;;;;;;;;;5015701;28;20489;-78
2023/02/09 12:26:20;;;;;;;14.45;8.27;;;;;;;;;;5022920;28;20030;-78
2023/02/09 12:29:02;;;;;;;14.93;8.25;;;;;;;;;;5030271;28;20041;-78
2023/02/09 12:31:28;;;;;;;14.38;8.45;;;;;;;;;;5014946;28;20022;-78
2023/02/09 12:33:54;;;;;;;15.90;8.15;;;;;;;;;;5012611;28;20076;-79
2023/02/09 12:36:33;;;;;;;18.38;9.00;;;;;;;;;;5030329;28;20531;-78
2023/02/09 12:39:27;;;;;;;16.10;8.00;;;;;;;;;;5029317;28;20033;-78
2023/02/09 12:41:52;;;;;;;18.45;8.95;;;;;;;;;;5028016;28;20030;-78
2023/02/09 12:44:18;;;;;;;16.23;9.52;;;;;;;;;;5012696;28;20448;-78
2023/02/09 12:46:44;;;;;;;17.50;9.30;;;;;;;;;;5017033;28;20021;-78
2023/02/09 12:49:12;;;;;;;16.80;8.85;;;;;;;;;;5032393;28;20087;-78
2023/02/09 12:51:53;;;;;;;13.95;8.10;;;;;;;;;;5033775;28;20504;-78
2023/02/09 12:54:41;;;;;;;17.10;8.48;;;;;;;;;;5042374;28;20029;-77
2023/02/09 12:57:15;;;;;;;17.05;9.30;;;;;;;;;;5031946;28;20104;-78
2023/02/09 13:00:03;;;;;;;14.85;8.50;;;;;;;;;;5028758;28;20029;-78
2023/02/09 13:02:54;;;;;;;17.40;9.35;;;;;;;;;;5030699;28;20028;-78
2023/02/09 13:05:38;;;;;;;17.00;9.25;;;;;;;;;;5031414;28;20028;-78
2023/02/09 13:08:14;;;;;;;18.83;8.70;;;;;;;;;;5029340;28;20151;-78
2023/02/09 13:10:52;;;;;;;17.95;9.25;;;;;;;;;;5016078;28;20036;-78
2023/02/09 13:13:35;;;;;;;14.80;9.00;;;;;;;;;;5027988;28;20024;-78
2023/02/09 13:16:23;;;;;;;19.88;9.48;;;;;;;;;;5018747;28;20029;-78
2023/02/09 13:19:23;;;;;;;16.92;9.18;;;;;;;;;;5029147;28;20025;-77
2023/02/09 13:22:19;;;;;;;21.98;9.80;;;;;;;;;;5026266;28;20095;-78
2023/02/09 13:25:13;;;;;;;20.02;10.25;;;;;;;;;;5014847;28;20395;-78
2023/02/09 13:27:45;;;;;;;15.43;9.40;;;;;;;;;;5006582;28;20492;-78
2023/02/09 13:30:31;;;;;;;17.73;9.75;;;;;;;;;;5009214;28;20108;-78
2023/02/09 13:33:22;;;;;;;15.20;8.57;;;;;;;;;;5029603;28;20032;-78
2023/02/09 13:36:00;;;;;;;16.05;9.48;;;;;;;;;;5012136;28;20038;-78
2023/02/09 13:38:30;;;;;;;17.02;9.70;;;;;;;;;;5012021;28;20021;-78
2023/02/09 13:40:57;;;;;;;18.83;10.02;;;;;;;;;;5030398;28;20021;-78
2023/02/09 13:43:33;;;;;;;19.48;10.05;;;;;;;;;;5012661;28;20401;-78
2023/02/09 13:46:00;;;;;;;19.45;9.48;;;;;;;;;;5030082;28;20087;-78
2023/02/09 13:48:34;;;;;;;18.65;9.48;;;;;;;;;;5010450;28;20021;-78
2023/02/09 13:51:03;;;;;;;16.05;8.98;;;;;;;;;;5019296;28;20381;-78
2023/02/09 13:53:30;;;;;;;17.13;10.23;;;;;;;;;;5009405;28;20029;-78
2023/02/09 13:55:58;;;;;;;17.35;10.02;;;;;;;;;;5026943;28;20205;-78
2023/02/09 13:58:27;;;;;;;17.48;10.48;;;;;;;;;;5025811;28;20026;-78
2023/02/09 14:00:59;;;;;;;19.10;10.85;;;;;;;;;;5015131;28;20045;-78
2023/02/09 14:03:28;;;;;;;16.40;9.77;;;;;;;;;;5028097;28;20493;-78
2023/02/09 14:06:14;;;;;;;15.85;9.75;;;;;;;;;;5028431;28;20504;-78
2023/02/09 14:08:40;;;;;;;17.60;10.35;;;;;;;;;;5028962;28;20021;-78
2023/02/09 14:11:44;;;;;;;17.05;9.63;;;;;;;;;;5031789;28;20143;-78
2023/02/09 14:14:14;;;;;;;16.48;9.73;;;;;;;;;;5027903;28;20225;-78
2023/02/09 14:16:39;;;;;;;19.92;10.75;;;;;;;;;;5014463;28;20040;-78
2023/02/09 14:19:24;;;;;;;19.05;10.38;;;;;;;;;;5023988;28;20393;-78
2023/02/09 14:21:49;;;;;;;17.08;9.93;;;;;;;;;;5011423;28;20029;-78
2023/02/09 14:24:26;;;;;;;20.77;12.25;;;;;;;;;;5036842;28;20014;-78
2023/02/09 14:26:55;;;;;;;17.02;10.32;;;;;;;;;;5032908;28;20059;-79
2023/02/09 14:29:29;;;;;;;18.08;10.10;;;;;;;;;;5013032;28;20128;-78
2023/02/09 14:32:34;;;;;;;21.52;12.00;;;;;;;;;;5032838;28;20418;-78
2023/02/09 14:35:30;;;;;;;20.27;11.45;;;;;;;;;;5026117;28;20048;-78
2023/02/09 14:37:58;;;;;;;18.70;9.68;;;;;;;;;;5009086;28;20509;-78
2023/02/09 14:40:27;;;;;;;21.40;12.48;;;;;;;;;;5010146;28;20028;-78
2023/02/09 14:42:59;;;;;;;21.02;11.70;;;;;;;;;;5030928;28;20018;-78
2023/02/09 14:45:42;;;;;;;19.15;10.85;;;;;;;;;;5030358;28;20102;-78
2023/02/09 14:48:22;;;;;;;20.33;10.95;;;;;;;;;;5013257;28;20048;-78
2023/02/09 14:50:49;;;;;;;17.95;11.10;;;;;;;;;;5002668;28;20393;-78
2023/02/09 14:53:16;;;;;;;18.08;10.50;;;;;;;;;;5012242;28;20034;-78
2023/02/09 14:55:43;;;;;;;21.15;11.45;;;;;;;;;;5025668;28;20034;-78
2023/02/09 14:58:20;;;;;;;18.42;10.68;;;;;;;;;;5023566;28;20136;-78
2023/02/09 15:00:45;;;;;;;18.40;10.48;;;;;;;;;;5007304;28;20033;-78
2023/02/09 15:03:11;;;;;;;19.65;11.65;;;;;;;;;;5009893;28;20067;-78